Time;durP1;ratioP1;P1;durP2;ratioP2;P2;SDS_P1;SDS_P2;PMS_P1;PMS_P2;Temp;Humidity;BMP_temperature;BMP_pressure;BME280_temperature;BME280_humidity;BME280_pressure;Samples;Min_cycle;Max_cycle;Signal;HPM_P1;HPM_P2
2021/06/30 00:02:26;;;;;;;1.00;0.70;;;;;;;14.67;100.00;95573.06;5011808;28;20774;-74
2021/06/30 00:04:51;;;;;;;1.15;0.63;;;;;;;14.89;100.00;95574.72;5011629;28;20415;-74
2021/06/30 00:07:17;;;;;;;2.33;0.90;;;;;;;14.93;100.00;95570.91;5011338;28;20420;-75
2021/06/30 00:09:43;;;;;;;0.85;0.55;;;;;;;14.91;100.00;95566.81;4993718;28;20471;-75
2021/06/30 00:12:09;;;;;;;1.92;0.82;;;;;;;14.87;100.00;95567.97;5011588;28;20467;-75
2021/06/30 00:14:34;;;;;;;2.85;0.70;;;;;;;14.86;100.00;95576.78;5011835;28;20449;-75
2021/06/30 00:17:00;;;;;;;0.80;0.57;;;;;;;14.86;100.00;95589.81;5011179;28;20460;-75
2021/06/30 00:19:28;;;;;;;1.63;0.80;;;;;;;14.86;100.00;95593.25;5010076;28;20587;-75
2021/06/30 00:21:54;;;;;;;1.40;0.73;;;;;;;14.79;100.00;95602.50;5011329;28;20415;-75
2021/06/30 00:24:19;;;;;;;1.40;0.80;;;;;;;14.74;100.00;95589.88;5011389;28;20420;-75
2021/06/30 00:26:45;;;;;;;1.40;0.67;;;;;;;14.70;100.00;95585.84;5011053;28;20416;-75
2021/06/30 00:29:10;;;;;;;0.77;0.67;;;;;;;14.65;100.00;95590.63;4993648;28;20416;-75
2021/06/30 00:31:36;;;;;;;1.20;0.73;;;;;;;14.62;100.00;95585.66;5011301;28;20416;-75
2021/06/30 00:34:03;;;;;;;1.60;0.60;;;;;;;14.73;100.00;95588.22;5011233;28;20433;-75
2021/06/30 00:36:31;;;;;;;0.90;0.68;;;;;;;14.79;100.00;95584.25;5009539;28;20429;-75
2021/06/30 00:38:57;;;;;;;2.47;0.68;;;;;;;14.80;100.00;95585.13;5009776;28;20460;-75
2021/06/30 00:41:22;;;;;;;2.30;0.60;;;;;;;14.83;100.00;95590.06;5011192;28;20452;-74
2021/06/30 00:43:48;;;;;;;1.57;0.40;;;;;;;14.81;100.00;95591.97;5011110;28;20710;-75
2021/06/30 00:46:13;;;;;;;0.60;0.50;;;;;;;14.86;100.00;95598.44;5010796;28;20405;-75
2021/06/30 00:48:40;;;;;;;1.70;0.80;;;;;;;14.84;100.00;95602.16;5011104;28;20845;-75
2021/06/30 00:51:05;;;;;;;1.20;0.70;;;;;;;14.61;100.00;95596.19;5010740;28;20413;-75
2021/06/30 00:53:32;;;;;;;1.38;0.70;;;;;;;14.61;100.00;95594.44;4993305;28;20500;-75
2021/06/30 00:55:58;;;;;;;1.33;0.70;;;;;;;14.71;100.00;95597.94;5010704;28;20518;-75
2021/06/30 00:58:24;;;;;;;1.52;0.75;;;;;;;14.72;100.00;95606.56;4993266;28;20823;-75
2021/06/30 01:00:49;;;;;;;1.55;0.98;;;;;;;14.71;100.00;95604.94;5010817;28;20507;-75
2021/06/30 01:03:15;;;;;;;2.40;0.90;;;;;;;14.75;100.00;95607.16;5010903;28;20516;-75
2021/06/30 01:05:41;;;;;;;1.95;0.90;;;;;;;14.58;100.00;95612.09;5009344;28;20413;-75
2021/06/30 01:08:07;;;;;;;1.52;0.82;;;;;;;14.52;100.00;95608.22;5010688;28;20425;-75
2021/06/30 01:10:34;;;;;;;2.20;0.85;;;;;;;14.58;100.00;95615.53;5011138;28;20431;-74
2021/06/30 01:13:02;;;;;;;2.88;0.80;;;;;;;14.56;100.00;95611.41;4993215;28;20427;-74
2021/06/30 01:15:28;;;;;;;1.80;0.70;;;;;;;14.45;100.00;95614.84;5010445;28;20429;-74
2021/06/30 01:17:53;;;;;;;1.60;0.70;;;;;;;14.37;100.00;95615.44;5010779;28;20417;-74
2021/06/30 01:20:19;;;;;;;5.17;0.93;;;;;;;14.23;100.00;95619.16;5010556;28;20417;-74
2021/06/30 01:23:02;;;;;;;2.50;0.93;;;;;;;14.11;100.00;95621.91;5010649;28;20423;-74
2021/06/30 01:25:28;;;;;;;4.80;1.10;;;;;;;14.11;100.00;95627.94;5009197;28;20918;-74
2021/06/30 01:27:53;;;;;;;3.10;0.70;;;;;;;14.16;100.00;95619.75;5010625;28;20416;-74
2021/06/30 01:30:19;;;;;;;1.40;0.60;;;;;;;14.13;100.00;95613.03;5009249;28;20498;-74
2021/06/30 01:32:44;;;;;;;2.33;0.90;;;;;;;14.17;100.00;95598.81;5010514;28;20495;-74
2021/06/30 01:35:19;;;;;;;2.70;0.87;;;;;;;14.31;100.00;95594.28;5010436;28;20404;-74
2021/06/30 01:37:47;;;;;;;1.40;0.70;;;;;;;14.19;100.00;95598.69;5010612;28;20522;-74
2021/06/30 01:40:14;;;;;;;3.55;0.73;;;;;;;14.08;100.00;95604.75;5010558;28;20417;-75
2021/06/30 01:42:42;;;;;;;5.07;0.80;;;;;;;14.01;100.00;95604.41;4992913;28;20433;-75
2021/06/30 01:45:09;;;;;;;5.53;0.80;;;;;;;13.88;100.00;95603.72;4992703;28;20425;-75
2021/06/30 01:47:34;;;;;;;1.15;0.55;;;;;;;13.83;100.00;95608.47;4992735;28;20424;-76
2021/06/30 01:49:59;;;;;;;2.10;0.80;;;;;;;13.69;100.00;95608.72;5010407;28;20423;-75
2021/06/30 01:52:29;;;;;;;0.83;0.60;;;;;;;13.78;100.00;95611.41;5010387;28;20416;-75
2021/06/30 01:54:55;;;;;;;1.90;0.70;;;;;;;13.86;100.00;95596.97;5010434;28;20420;-75
2021/06/30 01:57:21;;;;;;;2.47;0.80;;;;;;;13.78;100.00;95589.78;5009963;28;20431;-76
2021/06/30 01:59:46;;;;;;;2.10;0.60;;;;;;;13.88;100.00;95590.72;5010239;28;20962;-76
2021/06/30 02:02:12;;;;;;;3.25;0.60;;;;;;;13.86;100.00;95587.38;5009108;28;20428;-76
2021/06/30 02:04:38;;;;;;;1.20;0.60;;;;;;;13.74;100.00;95590.97;4996523;28;20425;-76
2021/06/30 02:07:04;;;;;;;0.68;0.40;;;;;;;13.83;100.00;95585.06;5013558;28;20415;-76
2021/06/30 02:09:30;;;;;;;0.55;0.45;;;;;;;13.71;100.00;95579.00;5013828;28;20427;-75
2021/06/30 02:11:57;;;;;;;1.48;0.45;;;;;;;13.62;100.00;95578.91;5012502;28;20425;-75
2021/06/30 02:14:22;;;;;;;1.15;0.50;;;;;;;13.73;100.00;95578.91;5012538;28;20424;-75
2021/06/30 02:16:47;;;;;;;1.80;0.50;;;;;;;13.76;100.00;95578.66;5013304;28;20960;-75
2021/06/30 02:19:13;;;;;;;1.00;0.33;;;;;;;13.80;100.00;95572.28;5013507;28;20452;-76
2021/06/30 02:21:39;;;;;;;0.80;0.40;;;;;;;13.84;100.00;95573.69;5013631;28;20546;-76
2021/06/30 02:24:05;;;;;;;1.20;0.43;;;;;;;13.58;100.00;95573.13;5013632;28;20492;-76
2021/06/30 02:26:33;;;;;;;1.10;0.35;;;;;;;13.50;100.00;95572.91;5013332;28;20866;-75
2021/06/30 02:29:01;;;;;;;0.70;0.40;;;;;;;13.65;100.00;95571.69;5013374;28;20452;-76
2021/06/30 02:31:26;;;;;;;0.40;0.30;;;;;;;13.65;100.00;95582.09;5013383;28;20439;-76
2021/06/30 02:33:52;;;;;;;0.70;0.40;;;;;;;13.67;100.00;95584.56;5013496;28;20412;-76
2021/06/30 02:36:18;;;;;;;0.82;0.50;;;;;;;13.70;100.00;95589.53;5013077;28;20432;-75
2021/06/30 02:38:44;;;;;;;0.95;0.43;;;;;;;13.69;100.00;95588.72;5013174;28;20464;-75
2021/06/30 02:41:09;;;;;;;0.63;0.30;;;;;;;13.73;100.00;95595.34;5013306;28;20460;-75
2021/06/30 02:43:35;;;;;;;0.85;0.22;;;;;;;13.44;100.00;95594.16;5013206;28;20929;-75
2021/06/30 02:46:02;;;;;;;1.15;0.35;;;;;;;13.39;100.00;95585.91;5013445;28;20420;-75
2021/06/30 02:48:28;;;;;;;3.55;0.30;;;;;;;13.20;100.00;95586.41;4995551;28;21161;-75
2021/06/30 02:50:53;;;;;;;1.50;0.30;;;;;;;13.14;100.00;95598.13;5012999;28;20499;-75
2021/06/30 02:53:19;;;;;;;0.87;0.40;;;;;;;13.01;100.00;95600.81;5013192;28;20421;-75
2021/06/30 02:55:44;;;;;;;0.73;0.30;;;;;;;13.11;100.00;95598.34;5012682;28;20830;-75
2021/06/30 02:58:09;;;;;;;0.47;0.30;;;;;;;13.23;100.00;95597.44;5012847;28;20412;-75
2021/06/30 03:00:35;;;;;;;0.20;0.20;;;;;;;13.34;100.00;95604.44;5011495;28;20441;-75
2021/06/30 03:03:02;;;;;;;5.27;0.53;;;;;;;13.42;100.00;95604.72;4995320;28;20479;-75
2021/06/30 03:05:27;;;;;;;0.20;0.20;;;;;;;13.46;100.00;95606.13;5012536;28;20441;-75
2021/06/30 03:07:53;;;;;;;1.00;0.28;;;;;;;13.37;100.00;95603.38;5012732;28;20933;-75
2021/06/30 03:10:19;;;;;;;0.47;0.30;;;;;;;13.26;100.00;95602.44;5012493;28;20420;-75
2021/06/30 03:12:45;;;;;;;1.00;0.20;;;;;;;13.23;100.00;95607.84;4995010;28;20416;-75
2021/06/30 03:15:11;;;;;;;0.43;0.20;;;;;;;13.38;100.00;95599.84;5012432;28;20790;-75
2021/06/30 03:17:37;;;;;;;0.25;0.20;;;;;;;13.40;100.00;95608.34;5011473;28;20424;-75
2021/06/30 03:20:07;;;;;;;0.40;0.20;;;;;;;13.36;100.00;95601.75;5012427;28;20490;-75
2021/06/30 03:22:33;;;;;;;0.40;0.28;;;;;;;13.30;100.00;95597.81;5012466;28;20431;-75
2021/06/30 03:24:59;;;;;;;1.00;0.38;;;;;;;13.23;100.00;95600.06;5012468;28;20970;-75
2021/06/30 03:27:24;;;;;;;0.60;0.30;;;;;;;13.23;100.00;95596.59;5012065;28;20427;-75
2021/06/30 03:29:50;;;;;;;0.30;0.20;;;;;;;13.09;100.00;95595.06;5012293;28;20435;-75
2021/06/30 03:32:15;;;;;;;1.37;0.30;;;;;;;13.13;100.00;95586.09;4994685;28;20943;-75
2021/06/30 03:34:40;;;;;;;0.80;0.30;;;;;;;13.21;100.00;95585.50;5010941;28;20520;-75
2021/06/30 03:37:07;;;;;;;0.40;0.27;;;;;;;13.21;100.00;95590.69;5011801;28;20420;-75
2021/06/30 03:39:33;;;;;;;0.70;0.30;;;;;;;13.29;100.00;95584.00;5012062;28;20425;-75
2021/06/30 03:41:58;;;;;;;0.43;0.20;;;;;;;13.31;100.00;95586.47;4994497;28;20486;-75
2021/06/30 03:44:24;;;;;;;0.30;0.20;;;;;;;13.17;100.00;95582.31;5012072;28;20419;-75
2021/06/30 03:46:50;;;;;;;0.90;0.28;;;;;;;13.16;100.00;95587.59;5010515;28;20420;-75
2021/06/30 03:49:15;;;;;;;0.77;0.20;;;;;;;13.10;100.00;95590.69;5012003;28;20910;-75
2021/06/30 03:51:41;;;;;;;0.50;0.20;;;;;;;13.04;100.00;95592.78;5011940;28;20424;-75
2021/06/30 03:54:09;;;;;;;1.47;0.23;;;;;;;13.09;100.00;95595.06;5011860;28;20409;-75
2021/06/30 03:56:35;;;;;;;0.65;0.20;;;;;;;13.02;100.00;95589.50;5010150;28;20428;-75
2021/06/30 03:59:00;;;;;;;0.20;0.20;;;;;;;13.14;100.00;95587.72;4994117;28;20413;-75
2021/06/30 04:01:26;;;;;;;1.88;0.30;;;;;;;13.02;100.00;95583.47;5010508;28;20421;-75
2021/06/30 04:03:55;;;;;;;0.47;0.30;;;;;;;13.08;100.00;95589.00;5010475;28;20423;-75
2021/06/30 04:06:21;;;;;;;0.83;0.43;;;;;;;13.07;100.00;95594.34;5011534;28;20409;-75
2021/06/30 04:08:48;;;;;;;0.30;0.10;;;;;;;13.02;100.00;95604.28;5011560;28;20424;-75
2021/06/30 04:11:15;;;;;;;0.63;0.30;;;;;;;12.96;100.00;95594.31;4993835;28;20427;-75
2021/06/30 04:13:40;;;;;;;0.57;0.28;;;;;;;12.77;100.00;95598.28;5010262;28;20421;-75
2021/06/30 04:16:06;;;;;;;0.90;0.20;;;;;;;12.79;100.00;95599.00;4993578;28;20431;-75
2021/06/30 04:18:31;;;;;;;3.45;0.30;;;;;;;12.72;100.00;95600.41;5010289;28;20479;-75
2021/06/30 04:20:57;;;;;;;0.50;0.20;;;;;;;12.82;100.00;95595.34;5011397;28;20436;-75
2021/06/30 04:23:22;;;;;;;0.52;0.22;;;;;;;12.95;100.00;95596.09;4993788;28;20907;-75
2021/06/30 04:25:48;;;;;;;0.40;0.20;;;;;;;12.90;100.00;95605.16;5010689;28;20425;-75
2021/06/30 04:28:15;;;;;;;1.50;0.20;;;;;;;12.88;100.00;95601.88;5011346;28;20504;-75
2021/06/30 04:30:40;;;;;;;0.52;0.20;;;;;;;12.87;100.00;95600.19;5011312;28;20504;-75
2021/06/30 04:33:06;;;;;;;1.10;0.40;;;;;;;12.93;100.00;95600.56;5010029;28;20548;-75
2021/06/30 04:35:31;;;;;;;0.97;0.20;;;;;;;12.90;100.00;95605.97;5011006;28;20428;-75
2021/06/30 04:37:57;;;;;;;1.50;0.40;;;;;;;12.86;100.00;95607.16;5011129;28;20448;-75
2021/06/30 04:40:22;;;;;;;0.40;0.20;;;;;;;12.98;100.00;95603.66;5009859;28;21024;-74
2021/06/30 04:42:48;;;;;;;0.77;0.20;;;;;;;13.03;100.00;95598.13;5011333;28;20520;-75
2021/06/30 04:45:14;;;;;;;0.90;0.30;;;;;;;13.02;100.00;95594.69;5010923;28;20417;-75
2021/06/30 04:47:40;;;;;;;2.10;0.30;;;;;;;13.01;100.00;95598.22;5011167;28;20873;-75
2021/06/30 04:50:06;;;;;;;0.68;0.25;;;;;;;13.13;100.00;95593.88;5011361;28;20500;-75
2021/06/30 04:52:31;;;;;;;0.20;0.13;;;;;;;12.98;100.00;95592.44;5010980;28;20412;-75
2021/06/30 04:54:57;;;;;;;0.30;0.20;;;;;;;13.01;100.00;95589.59;5010839;28;20413;-75
2021/06/30 04:57:22;;;;;;;0.55;0.20;;;;;;;13.11;100.00;95593.16;5010677;28;20424;-75
2021/06/30 04:59:48;;;;;;;1.50;0.10;;;;;;;13.04;100.00;95599.75;5010910;28;20766;-75
2021/06/30 05:02:15;;;;;;;1.20;0.27;;;;;;;13.13;100.00;95601.69;5010960;28;20450;-75
2021/06/30 05:04:40;;;;;;;0.70;0.20;;;;;;;13.02;100.00;95599.06;5010990;28;20416;-75
2021/06/30 05:07:06;;;;;;;0.43;0.20;;;;;;;13.00;100.00;95587.94;5010558;28;20413;-75
2021/06/30 05:09:31;;;;;;;2.00;0.20;;;;;;;12.99;100.00;95591.50;5010650;28;20810;-75
2021/06/30 05:11:57;;;;;;;0.50;0.20;;;;;;;12.93;100.00;95599.75;5010918;28;20413;-75
2021/06/30 05:14:22;;;;;;;1.17;0.30;;;;;;;12.97;100.00;95593.38;5010758;28;20423;-75
2021/06/30 05:16:47;;;;;;;0.23;0.10;;;;;;;13.08;100.00;95590.78;5010473;28;20508;-75
2021/06/30 05:19:14;;;;;;;0.60;0.20;;;;;;;13.08;100.00;95594.22;5010969;28;20420;-74
2021/06/30 05:21:39;;;;;;;0.20;0.10;;;;;;;13.12;100.00;95588.78;5010752;28;20417;-74
2021/06/30 05:24:05;;;;;;;0.60;0.20;;;;;;;13.07;100.00;95589.97;5010718;28;20422;-74
2021/06/30 05:26:30;;;;;;;1.10;0.30;;;;;;;13.21;100.00;95591.53;4992966;28;20513;-74
2021/06/30 05:28:56;;;;;;;0.53;0.30;;;;;;;13.27;100.00;95592.84;5010588;28;20447;-74
2021/06/30 05:31:21;;;;;;;0.63;0.30;;;;;;;13.48;100.00;95590.38;5010714;28;20756;-74
2021/06/30 05:33:46;;;;;;;1.40;0.30;;;;;;;13.46;100.00;95590.50;5010655;28;20782;-74
2021/06/30 05:36:13;;;;;;;0.90;0.30;;;;;;;13.52;100.00;95597.81;5010321;28;20428;-74
2021/06/30 05:38:38;;;;;;;1.05;0.40;;;;;;;13.75;100.00;95595.22;5011651;28;20790;-74
2021/06/30 05:41:04;;;;;;;0.63;0.30;;;;;;;13.79;100.00;95592.28;5014370;28;20423;-74
2021/06/30 05:43:29;;;;;;;0.67;0.40;;;;;;;13.78;100.00;95590.59;5013051;28;20503;-74
2021/06/30 05:45:55;;;;;;;0.60;0.30;;;;;;;13.92;100.00;95594.72;5012833;28;20426;-74
2021/06/30 05:48:20;;;;;;;3.33;0.60;;;;;;;14.28;100.00;95587.56;5014358;28;20432;-74
2021/06/30 05:50:46;;;;;;;0.37;0.27;;;;;;;14.04;100.00;95587.72;5014069;28;20894;-75
2021/06/30 05:53:12;;;;;;;1.03;0.20;;;;;;;14.06;100.00;95591.03;5014072;28;20421;-76
2021/06/30 05:55:38;;;;;;;0.88;0.30;;;;;;;13.97;100.00;95587.38;5013885;28;21036;-74
2021/06/30 05:58:03;;;;;;;0.30;0.30;;;;;;;13.89;100.00;95589.75;5014049;28;20508;-76
2021/06/30 06:00:29;;;;;;;3.40;0.47;;;;;;;13.96;100.00;95590.09;5014026;28;20416;-75
2021/06/30 06:02:55;;;;;;;1.60;0.60;;;;;;;14.25;100.00;95591.22;5012872;28;20420;-74
2021/06/30 06:05:20;;;;;;;0.43;0.40;;;;;;;14.42;100.00;95586.41;5013690;28;20416;-72
2021/06/30 06:07:46;;;;;;;0.75;0.30;;;;;;;14.46;99.74;95593.03;5013831;28;20424;-76
2021/06/30 06:10:13;;;;;;;1.80;0.60;;;;;;;14.51;99.49;95590.94;5013450;28;20421;-76
2021/06/30 06:12:38;;;;;;;0.90;0.50;;;;;;;14.58;97.87;95594.69;5013691;28;20413;-76
2021/06/30 06:15:05;;;;;;;1.23;0.45;;;;;;;14.24;99.17;95586.97;4996193;28;20429;-76
2021/06/30 06:17:31;;;;;;;0.50;0.32;;;;;;;14.41;98.30;95595.19;5013660;28;20416;-76
2021/06/30 06:19:56;;;;;;;1.00;0.47;;;;;;;14.71;96.84;95599.72;5013687;28;20499;-76
2021/06/30 06:22:22;;;;;;;2.00;0.30;;;;;;;14.75;96.38;95598.50;5014102;28;20412;-76
2021/06/30 06:24:47;;;;;;;1.00;0.40;;;;;;;14.88;93.09;95600.94;5012275;28;20443;-76
2021/06/30 06:27:14;;;;;;;0.57;0.37;;;;;;;14.73;95.25;95610.84;5013409;28;20428;-76
2021/06/30 06:29:40;;;;;;;2.78;0.35;;;;;;;14.63;97.26;95610.78;4995911;28;20412;-75
2021/06/30 06:32:06;;;;;;;1.57;0.40;;;;;;;14.81;94.32;95610.22;5013498;28;20515;-76
2021/06/30 06:34:32;;;;;;;1.17;0.30;;;;;;;14.59;95.61;95611.97;5013420;28;20519;-76
2021/06/30 06:37:00;;;;;;;2.27;0.50;;;;;;;14.67;95.79;95606.97;4995378;28;20527;-76
2021/06/30 06:39:27;;;;;;;0.93;0.20;;;;;;;14.55;93.31;95601.94;5013193;28;20409;-76
2021/06/30 06:41:53;;;;;;;0.73;0.33;;;;;;;14.66;92.32;95607.91;5013283;28;20417;-76
2021/06/30 06:44:20;;;;;;;0.20;0.20;;;;;;;14.67;92.02;95606.13;5034144;28;20484;-75
2021/06/30 06:46:46;;;;;;;2.28;0.40;;;;;;;14.71;92.87;95604.94;5032829;28;20862;-75
2021/06/30 06:49:12;;;;;;;0.88;0.22;;;;;;;15.10;91.12;95600.00;5032413;28;20510;-75
2021/06/30 06:51:38;;;;;;;0.50;0.40;;;;;;;15.07;89.34;95601.06;5032517;28;20419;-76
2021/06/30 06:54:05;;;;;;;0.20;0.20;;;;;;;15.37;88.72;95600.28;5015167;28;20482;-75
2021/06/30 06:56:30;;;;;;;0.40;0.30;;;;;;;15.24;87.21;95602.28;5014686;28;20962;-75
2021/06/30 06:58:56;;;;;;;0.60;0.33;;;;;;;15.15;87.52;95606.47;5014719;28;20446;-76
2021/06/30 07:01:23;;;;;;;0.30;0.20;;;;;;;15.33;85.98;95611.09;5032605;28;20457;-76
2021/06/30 07:03:49;;;;;;;0.38;0.20;;;;;;;15.43;85.23;95606.78;5032637;28;20466;-76
2021/06/30 07:06:14;;;;;;;0.52;0.20;;;;;;;15.25;85.73;95609.97;5032090;28;20446;-75
2021/06/30 07:08:40;;;;;;;0.50;0.25;;;;;;;15.53;87.60;95604.19;5032404;28;20461;-75
2021/06/30 07:11:08;;;;;;;0.63;0.27;;;;;;;15.82;86.88;95599.13;5014484;28;20844;-75
2021/06/30 07:13:34;;;;;;;1.15;0.30;;;;;;;16.20;85.06;95599.22;5014266;28;20481;-76
2021/06/30 07:15:59;;;;;;;0.40;0.20;;;;;;;16.05;82.24;95595.31;5014329;28;20496;-75
2021/06/30 07:18:26;;;;;;;0.50;0.32;;;;;;;16.12;81.88;95604.28;5014581;28;21024;-75
2021/06/30 07:20:52;;;;;;;0.35;0.20;;;;;;;16.59;83.76;95598.44;5014228;28;20770;-75
2021/06/30 07:23:18;;;;;;;2.40;0.30;;;;;;;16.67;80.26;95606.41;5070466;23;20927;-74
2021/06/30 07:25:43;;;;;;;0.77;0.30;;;;;;;16.23;82.27;95605.97;5032097;28;20411;-75
2021/06/30 07:28:09;;;;;;;0.50;0.30;;;;;;;16.23;81.93;95615.59;5032105;28;20839;-76
2021/06/30 07:30:35;;;;;;;3.50;0.20;;;;;;;16.05;79.02;95612.78;5032463;28;20417;-74
2021/06/30 07:33:01;;;;;;;1.38;0.30;;;;;;;15.57;84.23;95622.06;5036173;28;20430;-74
2021/06/30 07:35:28;;;;;;;0.50;0.10;;;;;;;15.38;86.32;95624.59;5037571;28;20430;-72
2021/06/30 07:37:53;;;;;;;0.50;0.15;;;;;;;15.01;90.74;95633.69;5033503;28;20470;-74
2021/06/30 07:40:19;;;;;;;1.00;0.30;;;;;;;15.16;91.00;95633.38;5031326;28;20462;-75
2021/06/30 07:42:44;;;;;;;0.70;0.30;;;;;;;14.93;93.58;95632.69;5032055;28;20469;-75
2021/06/30 07:45:10;;;;;;;4.73;0.30;;;;;;;14.68;95.03;95631.25;5031714;28;20403;-75
2021/06/30 07:47:36;;;;;;;1.70;0.23;;;;;;;14.64;97.14;95632.44;5031830;28;20509;-75
2021/06/30 07:50:02;;;;;;;0.83;0.37;;;;;;;14.47;97.75;95639.81;5014269;28;20530;-75
2021/06/30 07:52:28;;;;;;;1.30;0.40;;;;;;;14.62;99.04;95629.97;5031949;28;20414;-75
2021/06/30 07:54:54;;;;;;;0.90;0.30;;;;;;;14.73;100.00;95637.75;5031875;28;20438;-75
2021/06/30 07:57:20;;;;;;;0.47;0.20;;;;;;;14.88;100.00;95645.28;5013657;28;20423;-75
2021/06/30 07:59:45;;;;;;;1.00;0.37;;;;;;;15.02;99.49;95642.38;5031304;28;20426;-75
2021/06/30 08:02:11;;;;;;;0.53;0.33;;;;;;;15.15;98.97;95642.16;5013604;28;20823;-75
2021/06/30 08:04:36;;;;;;;0.43;0.30;;;;;;;15.14;95.87;95645.75;5031465;28;20505;-75
2021/06/30 08:07:03;;;;;;;0.80;0.20;;;;;;;15.19;98.93;95648.78;5013644;28;20414;-74
2021/06/30 08:09:31;;;;;;;1.58;0.30;;;;;;;14.99;97.75;95645.22;5030332;28;20518;-75
2021/06/30 08:11:58;;;;;;;0.73;0.20;;;;;;;15.04;97.38;95650.88;5013735;28;20419;-75
2021/06/30 08:14:23;;;;;;;1.40;0.28;;;;;;;15.19;96.51;95646.16;5031422;28;20427;-75
2021/06/30 08:16:49;;;;;;;0.30;0.17;;;;;;;15.20;96.62;95653.88;5031007;28;20423;-75
2021/06/30 08:19:14;;;;;;;4.23;0.60;;;;;;;15.34;96.50;95641.47;5031185;28;20411;-76
2021/06/30 08:21:39;;;;;;;0.57;0.10;;;;;;;15.34;95.58;95646.66;5031230;28;20512;-76
2021/06/30 08:24:05;;;;;;;1.43;0.30;;;;;;;15.23;94.01;95650.19;5031381;28;20412;-75
2021/06/30 08:26:32;;;;;;;3.00;0.33;;;;;;;15.24;95.20;95642.25;5031300;28;20914;-75
2021/06/30 08:28:58;;;;;;;0.60;0.22;;;;;;;15.48;94.31;95644.56;5031138;28;20443;-76
2021/06/30 08:31:24;;;;;;;2.45;0.40;;;;;;;15.41;92.99;95648.63;5031104;28;20457;-75
2021/06/30 08:33:49;;;;;;;1.40;0.30;;;;;;;15.69;92.07;95647.19;5030883;28;20845;-75
2021/06/30 08:36:15;;;;;;;6.47;0.75;;;;;;;15.67;92.65;95643.84;5030614;28;20533;-75
2021/06/30 08:38:40;;;;;;;4.83;0.47;;;;;;;15.78;91.04;95645.56;5031174;28;20423;-76
2021/06/30 08:41:05;;;;;;;0.50;0.20;;;;;;;15.71;89.74;95649.66;5031309;28;20505;-76
2021/06/30 08:43:32;;;;;;;0.47;0.20;;;;;;;15.95;90.72;95636.28;5030914;28;20450;-76
2021/06/30 08:46:00;;;;;;;0.63;0.30;;;;;;;16.24;90.39;95635.53;5030700;28;20419;-76
2021/06/30 08:48:28;;;;;;;0.45;0.22;;;;;;;16.45;91.89;95631.84;5030720;28;20431;-76
2021/06/30 08:50:56;;;;;;;0.50;0.20;;;;;;;16.54;88.88;95637.22;5030747;28;20497;-76
2021/06/30 08:53:22;;;;;;;2.42;0.30;;;;;;;16.43;85.57;95641.63;5029452;28;20415;-76
2021/06/30 08:55:48;;;;;;;0.50;0.30;;;;;;;16.30;85.17;95640.22;5030567;28;20407;-77
2021/06/30 08:58:15;;;;;;;4.05;1.13;;;;;;;16.33;84.44;95639.97;5031277;28;20446;-78
2021/06/30 09:00:43;;;;;;;1.40;0.40;;;;;;;15.79;86.57;95657.66;5031165;28;20418;-78
2021/06/30 09:03:14;;;;;;;0.50;0.30;;;;;;;15.49;90.47;95646.22;5032275;28;20414;-79
2021/06/30 09:08:22;;;;;;;0.33;0.10;;;;;;;14.85;97.21;95654.16;5032102;28;20463;-79
2021/06/30 09:10:48;;;;;;;1.63;0.43;;;;;;;15.13;98.52;95660.56;5031825;28;20438;-79
2021/06/30 09:13:20;;;;;;;4.50;0.40;;;;;;;15.34;98.89;95657.13;5033140;28;20450;-78
2021/06/30 09:15:56;;;;;;;0.60;0.22;;;;;;;15.33;97.87;95658.91;5033421;28;20469;-78
2021/06/30 09:18:26;;;;;;;0.98;0.30;;;;;;;15.56;97.72;95656.13;5035344;28;20430;-76
2021/06/30 09:21:14;;;;;;;0.70;0.20;;;;;;;15.53;94.85;95651.16;5034849;28;20465;-78
2021/06/30 09:23:55;;;;;;;0.60;0.20;;;;;;;15.69;94.51;95656.81;5033318;28;20426;-78
2021/06/30 09:26:20;;;;;;;0.60;0.30;;;;;;;15.77;94.71;95656.16;5034292;28;20921;-78
2021/06/30 09:28:46;;;;;;;0.30;0.20;;;;;;;15.76;92.12;95657.94;5034707;28;20716;-77
2021/06/30 09:31:15;;;;;;;1.00;0.30;;;;;;;15.65;94.30;95652.78;5034668;28;20414;-75
2021/06/30 09:33:44;;;;;;;1.48;0.40;;;;;;;15.97;95.20;95650.03;5034273;28;20907;-77
2021/06/30 09:36:12;;;;;;;1.20;0.40;;;;;;;15.96;92.09;95646.59;5032655;28;20839;-77
2021/06/30 09:38:38;;;;;;;0.95;0.38;;;;;;;16.04;92.32;95651.16;5034316;28;20418;-77
2021/06/30 09:41:03;;;;;;;1.27;0.50;;;;;;;16.34;90.05;95646.84;5034294;28;20415;-77
2021/06/30 09:43:30;;;;;;;0.30;0.20;;;;;;;16.47;89.36;95652.66;5034162;28;20908;-77
2021/06/30 09:45:57;;;;;;;0.82;0.30;;;;;;;16.98;88.47;95641.13;5033800;28;20742;-77
2021/06/30 09:48:33;;;;;;;0.40;0.20;;;;;;;17.24;78.56;95646.59;5016302;28;20793;-77
2021/06/30 09:51:02;;;;;;;0.25;0.20;;;;;;;17.29;80.24;95633.13;5033923;28;20414;-77
2021/06/30 09:53:38;;;;;;;0.80;0.30;;;;;;;17.09;80.99;95638.38;5033931;28;20427;-78
2021/06/30 09:56:12;;;;;;;0.40;0.30;;;;;;;17.33;80.97;95634.47;5033494;28;20431;-77
2021/06/30 09:58:37;;;;;;;0.40;0.20;;;;;;;17.62;73.94;95637.84;5016308;28;20430;-77
2021/06/30 10:01:16;;;;;;;1.40;0.30;;;;;;;17.97;77.62;95636.34;5015886;28;20423;-77
2021/06/30 10:03:43;;;;;;;0.68;0.20;;;;;;;17.64;69.79;95638.50;5033637;28;20431;-77
2021/06/30 10:06:26;;;;;;;0.38;0.22;;;;;;;17.75;75.11;95636.69;5032458;28;20831;-77
2021/06/30 10:08:51;;;;;;;0.40;0.20;;;;;;;17.27;71.61;95635.84;5033694;28;20899;-77
2021/06/30 10:11:17;;;;;;;0.57;0.20;;;;;;;17.03;71.49;95636.31;5032414;28;20434;-77
2021/06/30 10:13:42;;;;;;;0.83;0.20;;;;;;;17.13;70.30;95631.91;5033526;28;20418;-77
2021/06/30 10:16:08;;;;;;;0.53;0.23;;;;;;;16.98;72.07;95640.28;5015524;28;20422;-77
2021/06/30 10:18:34;;;;;;;0.63;0.30;;;;;;;16.73;70.74;95632.03;5033659;28;20424;-77
2021/06/30 10:21:01;;;;;;;0.70;0.30;;;;;;;16.66;73.72;95636.97;5032182;28;20817;-77
2021/06/30 10:23:26;;;;;;;0.50;0.20;;;;;;;16.34;75.06;95639.00;5032562;28;20419;-77
2021/06/30 10:25:52;;;;;;;1.05;0.30;;;;;;;16.05;79.39;95637.13;5015399;28;20419;-77
2021/06/30 10:28:19;;;;;;;1.10;0.20;;;;;;;16.17;77.97;95638.69;5033229;28;20439;-76
2021/06/30 10:30:44;;;;;;;1.90;0.30;;;;;;;16.27;80.86;95640.47;5015636;28;20804;-77
2021/06/30 10:33:09;;;;;;;0.85;0.38;;;;;;;16.52;79.43;95637.38;5033572;28;20415;-77
2021/06/30 10:35:44;;;;;;;0.50;0.20;;;;;;;16.60;80.03;95634.91;5038771;28;20425;-77
2021/06/30 10:38:10;;;;;;;0.30;0.17;;;;;;;16.37;81.72;95636.09;5038805;28;20419;-77
2021/06/30 10:40:36;;;;;;;0.57;0.30;;;;;;;16.04;83.20;95627.63;5034243;28;20885;-77
2021/06/30 10:43:10;;;;;;;0.40;0.30;;;;;;;16.01;87.05;95627.91;5032109;28;20522;-77
2021/06/30 10:45:36;;;;;;;0.30;0.30;;;;;;;15.96;86.31;95635.31;5033048;28;20498;-77
2021/06/30 10:48:03;;;;;;;0.95;0.30;;;;;;;16.05;86.54;95639.72;5031745;28;20505;-77
2021/06/30 10:50:32;;;;;;;1.00;0.30;;;;;;;15.90;86.31;95634.06;5031724;28;20423;-77
2021/06/30 10:53:34;;;;;;;0.38;0.30;;;;;;;15.82;87.95;95646.94;5031692;28;20469;-77
2021/06/30 10:56:04;;;;;;;0.60;0.30;;;;;;;15.77;89.04;95649.13;5032666;28;20823;-77
2021/06/30 10:58:30;;;;;;;1.60;0.40;;;;;;;15.82;88.18;95633.88;5031404;28;20411;-77
2021/06/30 11:01:09;;;;;;;0.30;0.20;;;;;;;15.84;90.73;95641.59;5015212;28;20430;-77
2021/06/30 11:03:36;;;;;;;0.47;0.30;;;;;;;15.79;86.64;95635.94;5031181;28;20463;-77
2021/06/30 11:06:26;;;;;;;0.70;0.20;;;;;;;15.70;87.48;95635.78;5033148;28;20477;-77
2021/06/30 11:08:53;;;;;;;0.38;0.20;;;;;;;15.69;89.14;95631.50;5037487;28;20429;-78
2021/06/30 11:12:01;;;;;;;0.50;0.38;;;;;;;15.61;93.65;95631.31;5052351;28;20418;-77
2021/06/30 11:14:44;;;;;;;3.50;0.30;;;;;;;15.93;92.75;95631.19;5034515;28;20455;-77
2021/06/30 11:17:10;;;;;;;0.75;0.30;;;;;;;15.83;92.67;95627.69;5052039;28;20464;-78
2021/06/30 11:19:46;;;;;;;0.80;0.50;;;;;;;15.84;92.75;95625.94;5034487;28;20437;-78
2021/06/30 11:22:24;;;;;;;1.02;0.43;;;;;;;15.89;90.47;95627.19;5018352;28;20423;-78
2021/06/30 11:24:50;;;;;;;0.47;0.40;;;;;;;16.12;95.55;95624.34;5014450;28;20427;-77
2021/06/30 11:27:47;;;;;;;1.03;0.40;;;;;;;16.37;91.73;95623.03;5031877;28;20441;-77
2021/06/30 11:30:35;;;;;;;1.05;0.57;;;;;;;16.05;91.09;95615.41;5013550;28;20423;-77
2021/06/30 11:33:00;;;;;;;0.70;0.40;;;;;;;16.19;90.84;95618.47;5013831;28;20419;-77